Time;durP1;ratioP1;P1;durP2;ratioP2;P2;SDS_P1;SDS_P2;PMS_P1;PMS_P2;Temp;Humidity;BMP_temperature;BMP_pressure;BME280_temperature;BME280_humidity;BME280_pressure;Samples;Min_cycle;Max_cycle;Signal;HPM_P1;HPM_P2
2021/12/30 00:00:12;;;;;;;;;6.25;6.25;;;;;12.67;87.46;99309.59;5090921;28;8846;-64
2021/12/30 00:02:40;;;;;;;;;11.00;9.50;;;;;12.65;88.00;99310.75;5090500;28;8919;-65
2021/12/30 00:05:08;;;;;;;;;13.25;11.50;;;;;12.63;87.47;99315.41;5091303;28;8849;-64
2021/12/30 00:07:36;;;;;;;;;10.00;9.00;;;;;12.61;88.00;99318.22;5090610;28;8846;-64
2021/12/30 00:10:04;;;;;;;;;12.75;12.25;;;;;12.61;87.67;99314.72;5091566;28;8976;-65
2021/12/30 00:12:31;;;;;;;;;7.00;5.75;;;;;12.61;88.01;99325.41;5090934;28;8858;-64
2021/12/30 00:14:59;;;;;;;;;11.75;9.75;;;;;12.60;87.67;99323.72;5090799;28;8856;-67
2021/12/30 00:17:26;;;;;;;;;4.00;3.00;;;;;12.57;87.58;99332.03;5091608;28;8842;-64
2021/12/30 00:19:54;;;;;;;;;12.50;10.00;;;;;12.58;87.51;99336.38;5091092;28;8837;-64
2021/12/30 00:22:22;;;;;;;;;12.25;10.00;;;;;12.56;87.66;99341.03;5090590;28;8868;-64
2021/12/30 00:24:50;;;;;;;;;6.75;6.75;;;;;12.55;87.63;99350.84;5090335;28;9000;-65
2021/12/30 00:27:18;;;;;;;;;8.00;7.00;;;;;12.54;87.32;99354.53;5090363;28;8846;-65
2021/12/30 00:29:46;;;;;;;;;11.75;11.50;;;;;12.55;87.46;99350.84;5091321;28;8926;-64
2021/12/30 00:32:13;;;;;;;;;10.00;9.50;;;;;12.54;87.48;99362.53;5090837;28;8842;-64
2021/12/30 00:34:41;;;;;;;;;14.00;9.50;;;;;12.54;87.87;99356.38;5091100;28;8849;-65
2021/12/30 00:37:09;;;;;;;;;11.50;10.25;;;;;12.51;87.48;99370.84;5090740;28;8852;-64
2021/12/30 00:39:36;;;;;;;;;10.00;7.00;;;;;12.49;87.71;99363.97;5089998;28;9535;-64
2021/12/30 00:42:04;;;;;;;;;8.50;7.50;;;;;12.47;87.35;99369.44;5090728;28;8850;-65
2021/12/30 00:44:31;;;;;;;;;12.00;10.00;;;;;12.47;87.76;99381.97;5091111;28;8853;-64
2021/12/30 00:46:59;;;;;;;;;12.00;9.00;;;;;12.47;87.77;99392.66;5090597;28;9565;-64
2021/12/30 00:49:27;;;;;;;;;7.00;6.00;;;;;12.46;87.49;99373.13;5090339;28;8850;-64
2021/12/30 00:51:55;;;;;;;;;10.00;8.75;;;;;12.47;87.59;99377.47;5070709;28;8851;-64
2021/12/30 00:54:23;;;;;;;;;7.00;7.00;;;;;12.45;87.42;99383.97;5071484;28;8851;-64
2021/12/30 00:56:51;;;;;;;;;7.50;7.00;;;;;12.45;87.40;99397.31;5069594;28;8970;-64
2021/12/30 00:59:19;;;;;;;;;6.25;5.00;;;;;12.42;87.88;99395.78;5070442;28;8974;-64
2021/12/30 01:01:47;;;;;;;;;7.50;5.75;;;;;12.42;87.42;99410.94;5070573;28;8848;-64
2021/12/30 01:04:15;;;;;;;;;8.25;7.00;;;;;12.42;87.70;99409.13;5070246;28;8863;-64
2021/12/30 01:06:43;;;;;;;;;8.75;6.25;;;;;12.43;87.32;99401.94;5071139;28;8863;-64
2021/12/30 01:09:11;;;;;;;;;4.00;4.00;;;;;12.41;87.44;99394.09;5070788;28;9652;-66
2021/12/30 01:11:38;;;;;;;;;3.50;3.50;;;;;12.41;87.60;99410.13;5069766;28;9502;-64
2021/12/30 01:14:15;;;;;;;;;7.50;6.25;;;;;12.38;87.14;99409.56;5071960;28;8840;-64
2021/12/30 01:16:46;;;;;;;;;6.75;6.00;;;;;12.35;87.33;99400.03;5070752;28;9600;-66
2021/12/30 01:19:23;;;;;;;;;4.50;4.00;;;;;12.32;87.24;99410.97;5070927;28;8867;-65
2021/12/30 01:21:52;;;;;;;;;7.75;7.00;;;;;12.29;87.27;99410.44;5090942;28;8822;-65
2021/12/30 01:24:20;;;;;;;;;7.00;5.00;;;;;12.25;87.49;99407.22;5090854;28;9642;-65
2021/12/30 01:26:48;;;;;;;;;6.00;6.00;;;;;12.22;87.27;99412.00;5089117;28;8864;-64
2021/12/30 01:29:17;;;;;;;;;5.00;5.00;;;;;12.22;87.28;99414.66;5090048;28;8850;-65
2021/12/30 01:31:46;;;;;;;;;3.75;3.25;;;;;12.20;87.65;99408.63;5090763;28;8838;-65
2021/12/30 01:34:20;;;;;;;;;4.00;4.00;;;;;12.21;87.21;99402.31;5089458;28;8846;-64
2021/12/30 01:36:48;;;;;;;;;3.75;3.00;;;;;12.20;87.29;99416.66;5089851;28;8838;-65
2021/12/30 01:39:17;;;;;;;;;1.00;0.00;;;;;12.20;87.64;99417.50;5086918;28;8841;-66
2021/12/30 01:41:45;;;;;;;;;3.75;3.75;;;;;12.23;87.85;99429.72;5088153;28;8866;-65
2021/12/30 01:44:17;;;;;;;;;4.00;4.00;;;;;12.24;86.98;99434.88;5091009;28;8844;-64
2021/12/30 01:46:45;;;;;;;;;4.50;4.50;;;;;12.25;87.59;99438.41;5090288;28;8870;-65
2021/12/30 01:49:13;;;;;;;;;3.00;3.00;;;;;12.27;87.31;99439.09;5090492;28;9520;-64
2021/12/30 01:51:40;;;;;;;;;3.50;3.50;;;;;12.25;87.40;99447.25;5093374;28;8946;-64
2021/12/30 01:54:08;;;;;;;;;6.75;6.50;;;;;12.23;87.53;99453.75;5093489;28;9745;-64
2021/12/30 01:56:36;;;;;;;;;3.50;3.50;;;;;12.24;86.95;99450.09;5093454;28;8830;-63
2021/12/30 01:59:04;;;;;;;;;4.00;3.75;;;;;12.23;86.76;99451.06;5093054;28;9573;-64
2021/12/30 02:01:31;;;;;;;;;4.75;2.50;;;;;12.23;87.07;99461.75;5092581;28;8873;-64
2021/12/30 02:03:59;;;;;;;;;0.25;0.00;;;;;12.21;87.12;99455.69;5093493;28;8826;-64
2021/12/30 02:06:27;;;;;;;;;1.00;1.00;;;;;12.22;87.33;99466.25;5091741;28;8853;-65
2021/12/30 02:08:55;;;;;;;;;4.25;4.00;;;;;12.23;87.33;99454.56;5093996;28;8903;-65
2021/12/30 02:11:22;;;;;;;;;3.00;3.00;;;;;12.24;86.92;99455.44;5093516;28;8862;-65
2021/12/30 02:13:51;;;;;;;;;3.50;3.25;;;;;12.24;87.24;99456.25;5092378;28;8862;-65
2021/12/30 02:16:20;;;;;;;;;3.00;2.00;;;;;12.25;86.65;99451.75;5094189;28;8861;-64
2021/12/30 02:18:48;;;;;;;;;3.25;3.25;;;;;12.28;86.81;99454.13;5093288;28;8864;-66
2021/12/30 02:21:15;;;;;;;;;4.00;3.00;;;;;12.30;86.86;99462.88;5093938;28;8842;-64
2021/12/30 02:23:43;;;;;;;;;3.25;3.25;;;;;12.31;86.67;99451.19;5093696;28;8838;-64
2021/12/30 02:26:13;;;;;;;;;3.25;1.50;;;;;12.32;87.04;99448.34;5092564;28;8818;-66
2021/12/30 02:28:40;;;;;;;;;3.50;3.50;;;;;12.34;86.96;99457.09;5093909;28;8857;-65
2021/12/30 02:31:08;;;;;;;;;7.50;4.00;;;;;12.36;86.42;99456.91;5093081;28;9680;-66
2021/12/30 02:33:36;;;;;;;;;5.00;4.50;;;;;12.37;86.22;99447.91;5093336;28;8865;-64
2021/12/30 02:36:04;;;;;;;;;5.00;3.50;;;;;12.37;86.54;99446.09;5093028;28;8961;-64
2021/12/30 02:38:31;;;;;;;;;3.50;3.00;;;;;12.38;86.83;99453.13;5093127;28;8838;-64
2021/12/30 02:40:59;;;;;;;;;6.75;6.00;;;;;12.39;86.61;99451.31;5092482;28;8862;-64
2021/12/30 02:43:27;;;;;;;;;3.75;3.25;;;;;12.41;86.60;99457.34;5091990;28;8931;-64
2021/12/30 02:45:56;;;;;;;;;3.75;3.75;;;;;12.42;86.87;99465.22;5093037;28;8862;-65
2021/12/30 02:48:24;;;;;;;;;4.50;4.50;;;;;12.44;86.63;99475.72;5090697;28;8841;-64
2021/12/30 02:50:51;;;;;;;;;3.50;3.50;;;;;12.45;86.70;99461.41;5093517;28;8973;-64
2021/12/30 02:53:20;;;;;;;;;4.00;3.00;;;;;12.46;86.57;99477.28;5092362;28;8830;-64
2021/12/30 02:55:48;;;;;;;;;5.00;3.50;;;;;12.45;86.64;99464.91;5092823;28;8841;-64
2021/12/30 02:58:15;;;;;;;;;6.25;5.75;;;;;12.46;86.09;99473.78;5092389;28;8846;-64
2021/12/30 03:00:43;;;;;;;;;4.50;3.50;;;;;12.48;86.66;99461.09;5091468;28;8850;-64
2021/12/30 03:03:11;;;;;;;;;9.00;7.25;;;;;12.49;86.59;99462.78;5091698;28;8925;-64
2021/12/30 03:05:39;;;;;;;;;4.50;4.00;;;;;12.50;86.42;99462.66;5091896;28;9512;-66
2021/12/30 03:08:06;;;;;;;;;3.00;3.00;;;;;12.50;86.31;99462.66;5093530;28;9231;-64
2021/12/30 03:10:34;;;;;;;;;1.50;1.00;;;;;12.51;86.07;99466.16;5092173;28;8861;-64
2021/12/30 03:13:04;;;;;;;;;3.25;3.25;;;;;12.52;86.35;99474.03;5092012;28;8898;-64
2021/12/30 03:15:32;;;;;;;;;7.00;6.25;;;;;12.54;86.58;99469.38;5091360;28;8846;-65
2021/12/30 03:18:00;;;;;;;;;6.50;6.00;;;;;12.54;86.20;99452.53;5091879;28;8850;-64
2021/12/30 03:20:28;;;;;;;;;3.25;2.25;;;;;12.55;86.27;99454.19;5091318;28;8841;-64
2021/12/30 03:22:56;;;;;;;;;2.00;2.00;;;;;12.56;86.33;99466.56;5091739;28;8865;-64
2021/12/30 03:25:23;;;;;;;;;0.00;0.00;;;;;12.58;86.79;99469.91;5089963;28;8918;-64
2021/12/30 03:27:51;;;;;;;;;4.50;3.50;;;;;12.58;86.36;99475.25;5090995;28;8841;-65
2021/12/30 03:30:19;;;;;;;;;3.00;3.00;;;;;12.60;86.77;99475.97;5091597;28;8874;-64
2021/12/30 03:32:47;;;;;;;;;3.75;3.25;;;;;12.61;86.16;99466.97;5091942;28;8854;-65
2021/12/30 03:35:14;;;;;;;;;5.50;3.75;;;;;12.61;86.43;99467.81;5092565;28;8979;-63
2021/12/30 03:37:42;;;;;;;;;4.00;3.75;;;;;12.62;86.81;99463.31;5090868;28;8834;-64
2021/12/30 03:40:10;;;;;;;;;9.50;7.50;;;;;12.62;86.13;99484.69;5091159;28;8864;-64
2021/12/30 03:42:38;;;;;;;;;2.50;1.00;;;;;12.60;86.75;99484.00;5091183;28;9598;-65
2021/12/30 03:45:06;;;;;;;;;6.00;5.50;;;;;12.54;87.04;99493.41;5091081;28;8846;-63
2021/12/30 03:47:37;;;;;;;;;4.50;4.00;;;;;12.47;87.02;99491.47;5091454;28;8858;-64
2021/12/30 03:50:04;;;;;;;;;3.75;3.00;;;;;12.42;87.43;99496.41;5092196;28;8838;-65
2021/12/30 03:52:32;;;;;;;;;6.50;4.50;;;;;12.37;87.45;99498.66;5092401;28;8876;-64
2021/12/30 03:55:00;;;;;;;;;3.50;3.00;;;;;12.33;87.50;99497.28;5091921;28;8973;-65
2021/12/30 03:57:28;;;;;;;;;8.00;3.00;;;;;12.33;87.55;99497.28;5091060;28;8842;-64
2021/12/30 03:59:55;;;;;;;;;4.00;4.00;;;;;12.31;88.23;99497.41;5091606;28;8938;-65
2021/12/30 04:02:23;;;;;;;;;2.00;2.00;;;;;12.31;87.86;99504.59;5091331;28;9821;-64
2021/12/30 04:04:51;;;;;;;;;3.50;3.25;;;;;12.30;88.16;99500.25;5091218;28;8826;-67
2021/12/30 04:07:19;;;;;;;;;6.25;4.00;;;;;12.30;88.08;99508.25;5090656;28;9522;-65
2021/12/30 04:09:47;;;;;;;;;3.00;3.00;;;;;12.31;88.14;99507.25;5090328;28;8872;-65
2021/12/30 04:12:14;;;;;;;;;3.25;0.25;;;;;12.32;88.18;99512.44;5091660;28;8873;-66
2021/12/30 04:14:42;;;;;;;;;3.25;2.00;;;;;12.34;88.14;99512.31;5090995;28;8842;-64
2021/12/30 04:17:10;;;;;;;;;5.00;5.00;;;;;12.36;88.50;99510.31;5090802;28;8866;-64
2021/12/30 04:19:38;;;;;;;;;4.50;4.00;;;;;12.38;88.09;99516.38;5091493;28;8838;-65
2021/12/30 04:22:05;;;;;;;;;3.75;3.75;;;;;12.39;88.52;99518.88;5090520;28;8896;-65
2021/12/30 04:24:33;;;;;;;;;0.00;0.00;;;;;12.43;88.18;99516.78;5089452;28;9964;-64
2021/12/30 04:27:01;;;;;;;;;5.00;5.00;;;;;12.44;88.06;99510.44;5090409;28;8864;-64
2021/12/30 04:29:28;;;;;;;;;1.00;1.00;;;;;12.47;88.14;99507.50;5090945;28;9601;-64
2021/12/30 04:31:57;;;;;;;;;2.00;2.00;;;;;12.48;88.37;99506.50;5090652;28;8822;-64
2021/12/30 04:34:25;;;;;;;;;2.50;2.50;;;;;12.49;88.26;99502.84;5090916;28;8834;-64
2021/12/30 04:36:53;;;;;;;;;3.25;3.25;;;;;12.51;88.13;99492.84;5089932;28;9190;-64
2021/12/30 04:39:21;;;;;;;;;3.00;2.50;;;;;12.53;88.34;99499.75;5088039;28;8838;-64
2021/12/30 04:41:49;;;;;;;;;3.00;3.00;;;;;12.56;88.42;99498.63;5089571;28;8856;-64
2021/12/30 04:44:17;;;;;;;;;4.00;3.50;;;;;12.59;88.64;99504.50;5089504;28;8846;-64
2021/12/30 04:46:44;;;;;;;;;3.75;1.50;;;;;12.62;88.79;99503.38;5089963;28;8889;-65
2021/12/30 04:49:12;;;;;;;;;3.75;3.75;;;;;12.64;88.86;99493.38;5090128;28;9148;-64
2021/12/30 04:51:40;;;;;;;;;3.25;3.00;;;;;12.67;88.40;99501.09;5090498;28;8846;-64
2021/12/30 04:54:08;;;;;;;;;3.00;1.00;;;;;12.70;88.27;99498.16;5090479;28;8858;-65
2021/12/30 04:56:35;;;;;;;;;4.50;2.00;;;;;12.72;88.15;99490.81;5088676;28;8842;-64
2021/12/30 04:59:03;;;;;;;;;4.00;3.00;;;;;12.75;88.45;99509.25;5090873;28;9726;-65
2021/12/30 05:01:31;;;;;;;;;1.00;1.00;;;;;12.77;88.33;99504.59;5090305;28;8838;-64
2021/12/30 05:03:59;;;;;;;;;4.00;3.00;;;;;12.78;88.08;99500.94;5090725;28;8850;-64
2021/12/30 05:06:27;;;;;;;;;3.00;1.00;;;;;12.81;88.17;99508.63;5090994;28;8860;-64
2021/12/30 05:08:54;;;;;;;;;2.50;2.50;;;;;12.83;88.57;99498.66;5089838;28;9571;-64
2021/12/30 05:11:22;;;;;;;;;3.00;3.00;;;;;12.85;88.37;99496.69;5089969;28;8837;-64
2021/12/30 05:13:50;;;;;;;;;2.50;2.00;;;;;12.85;88.80;99508.19;5090141;28;8876;-66
2021/12/30 05:16:18;;;;;;;;;1.00;1.00;;;;;12.85;88.26;99510.88;5089734;28;9725;-64
2021/12/30 05:18:54;;;;;;;;;1.00;1.00;;;;;12.86;88.84;99511.72;5089425;28;8862;-64
2021/12/30 05:21:22;;;;;;;;;3.00;1.00;;;;;12.87;88.71;99508.91;5088967;28;8902;-65
2021/12/30 05:23:50;;;;;;;;;1.00;0.75;;;;;12.88;88.46;99507.91;5089336;28;8833;-64
2021/12/30 05:26:18;;;;;;;;;0.75;0.75;;;;;12.90;89.22;99518.47;5092777;28;8862;-64
2021/12/30 05:28:45;;;;;;;;;0.75;0.00;;;;;12.89;88.35;99509.59;5093526;28;8845;-64
2021/12/30 05:31:13;;;;;;;;;0.25;0.25;;;;;12.89;89.05;99506.94;5092814;28;8845;-64
2021/12/30 05:33:41;;;;;;;;;1.00;1.00;;;;;12.89;88.31;99506.06;5093776;28;8841;-64
2021/12/30 05:36:09;;;;;;;;;0.50;0.00;;;;;12.89;88.99;99506.06;5090533;28;8977;-63
2021/12/30 05:38:36;;;;;;;;;0.00;0.00;;;;;12.90;88.71;99515.81;5094106;28;8863;-64
2021/12/30 05:41:05;;;;;;;;;3.00;1.50;;;;;12.90;88.75;99515.81;5092702;28;8870;-64
2021/12/30 05:43:32;;;;;;;;;0.00;0.00;;;;;12.89;88.89;99512.28;5094203;28;8853;-63
2021/12/30 05:46:00;;;;;;;;;1.00;1.00;;;;;12.90;89.11;99518.47;5093247;28;8876;-65
2021/12/30 05:48:28;;;;;;;;;0.00;0.00;;;;;12.91;88.77;99523.66;5092470;28;8858;-63
2021/12/30 05:50:59;;;;;;;;;0.00;0.00;;;;;12.90;89.19;99523.81;5091891;28;9258;-65
2021/12/30 05:53:27;;;;;;;;;0.00;0.00;;;;;12.89;88.75;99522.97;5092721;28;8830;-66
2021/12/30 05:55:55;;;;;;;;;0.75;0.00;;;;;12.90;88.98;99507.78;5092128;28;8883;-68
2021/12/30 05:58:23;;;;;;;;;0.00;0.00;;;;;12.90;89.04;99518.47;5091532;28;8830;-66
2021/12/30 06:00:50;;;;;;;;;0.00;0.00;;;;;12.90;89.40;99515.81;5091685;28;8830;-65
2021/12/30 06:03:21;;;;;;;;;0.00;0.00;;;;;12.91;89.00;99512.13;5090938;28;8850;-63
2021/12/30 06:05:48;;;;;;;;;0.00;0.00;;;;;12.90;89.50;99519.28;5093945;28;8922;-63
2021/12/30 06:08:16;;;;;;;;;0.00;0.00;;;;;12.92;89.05;99513.81;5092625;28;8826;-64
2021/12/30 06:10:44;;;;;;;;;0.00;0.00;;;;;12.92;89.14;99516.50;5092288;28;8900;-66
2021/12/30 06:13:13;;;;;;;;;0.00;0.00;;;;;12.91;89.20;99514.81;5091897;28;8853;-64
2021/12/30 06:15:41;;;;;;;;;0.00;0.00;;;;;12.90;89.51;99511.28;5092911;28;8858;-64
2021/12/30 06:18:08;;;;;;;;;0.00;0.00;;;;;12.89;89.18;99504.25;5092647;28;8834;-65
2021/12/30 06:20:36;;;;;;;;;0.00;0.00;;;;;12.89;89.66;99517.63;5092457;28;8860;-65
2021/12/30 06:23:04;;;;;;;;;0.00;0.00;;;;;12.88;89.61;99520.44;5092917;28;9642;-65
2021/12/30 06:25:32;;;;;;;;;0.00;0.00;;;;;12.87;89.55;99511.59;5092676;28;8838;-66
2021/12/30 06:27:59;;;;;;;;;0.00;0.00;;;;;12.84;89.75;99514.53;5091732;28;8872;-67
2021/12/30 06:30:27;;;;;;;;;0.00;0.00;;;;;12.81;89.89;99514.84;5091924;28;8956;-67
2021/12/30 06:32:55;;;;;;;;;0.00;0.00;;;;;12.81;89.60;99519.31;5089915;28;8845;-66
2021/12/30 06:35:23;;;;;;;;;0.00;0.00;;;;;12.78;89.97;99520.50;5089553;28;8869;-65
2021/12/30 06:37:50;;;;;;;;;0.00;0.00;;;;;12.76;89.78;99530.47;5088874;28;9692;-66
2021/12/30 06:40:19;;;;;;;;;0.00;0.00;;;;;12.76;89.68;99525.13;5091297;28;8940;-68
2021/12/30 06:42:46;;;;;;;;;0.00;0.00;;;;;12.76;89.74;99522.44;5091804;28;8838;-68
2021/12/30 06:45:14;;;;;;;;;0.00;0.00;;;;;12.76;90.12;99526.97;5090935;28;9580;-67
2021/12/30 06:47:42;;;;;;;;;0.00;0.00;;;;;12.77;90.06;99528.63;5088943;28;9532;-67
2021/12/30 06:50:11;;;;;;;;;0.00;0.00;;;;;12.79;89.97;99523.97;5090863;28;8954;-68
2021/12/30 06:52:39;;;;;;;;;0.00;0.00;;;;;12.81;90.22;99525.53;5089781;28;8860;-69
2021/12/30 06:55:07;;;;;;;;;0.00;0.00;;;;;12.84;90.45;99516.38;5089008;28;8834;-67
2021/12/30 06:57:34;;;;;;;;;0.00;0.00;;;;;12.85;90.12;99521.56;5089487;28;8845;-68
2021/12/30 07:00:02;;;;;;;;;0.00;0.00;;;;;12.88;89.77;99529.31;5088329;28;9096;-66
2021/12/30 07:02:30;;;;;;;;;1.00;0.00;;;;;12.91;89.89;99523.66;5091485;28;8833;-68
2021/12/30 07:04:58;;;;;;;;;0.00;0.00;;;;;12.93;89.63;99519.00;5090706;28;8904;-68
2021/12/30 07:07:26;;;;;;;;;0.00;0.00;;;;;12.98;89.89;99530.13;5089680;28;9612;-69
2021/12/30 07:09:53;;;;;;;;;0.00;0.00;;;;;13.02;90.16;99536.88;5088813;28;8854;-70
2021/12/30 07:12:21;;;;;;;;;0.00;0.00;;;;;13.08;89.84;99535.44;5090083;28;8838;-69
2021/12/30 07:14:49;;;;;;;;;0.00;0.00;;;;;13.14;89.44;99527.66;5088652;28;8976;-69
2021/12/30 07:17:17;;;;;;;;;0.00;0.00;;;;;13.19;90.02;99529.88;5089369;28;8884;-68
2021/12/30 07:19:44;;;;;;;;;0.25;0.25;;;;;13.25;90.15;99523.94;5087144;28;9822;-68
2021/12/30 07:22:12;;;;;;;;;0.00;0.00;;;;;13.29;89.67;99520.81;5088607;28;8846;-68
2021/12/30 07:25:00;;;;;;;;;0.00;0.00;;;;;13.35;89.83;99536.28;5087702;28;8862;-68
2021/12/30 07:27:30;;;;;;;;;0.00;0.00;;;;;13.41;89.55;99534.81;5089893;28;8925;-68
2021/12/30 07:29:59;;;;;;;;;0.00;0.00;;;;;13.45;89.62;99538.91;5088314;28;8878;-68
2021/12/30 07:32:26;;;;;;;;;0.50;0.50;;;;;13.52;89.32;99531.97;5088426;28;8877;-68
2021/12/30 07:34:54;;;;;;;;;0.50;0.50;;;;;13.56;89.52;99536.84;5089147;28;8845;-70
2021/12/30 07:37:22;;;;;;;;;1.00;1.00;;;;;13.60;89.75;99540.06;5088356;28;8969;-68
2021/12/30 07:39:50;;;;;;;;;1.00;1.00;;;;;13.63;89.81;99553.13;5088894;28;8856;-69
2021/12/30 07:42:17;;;;;;;;;1.00;1.00;;;;;13.65;89.75;99564.53;5089581;28;8850;-67
2021/12/30 07:44:45;;;;;;;;;2.50;1.00;;;;;13.69;89.78;99571.28;5089419;28;8864;-69
2021/12/30 07:47:17;;;;;;;;;1.00;0.50;;;;;13.71;89.23;99572.81;5090612;28;8870;-68
2021/12/30 07:49:44;;;;;;;;;1.00;1.00;;;;;13.74;89.72;99582.38;5088657;28;8868;-68
2021/12/30 07:52:12;;;;;;;;;1.00;1.00;;;;;13.76;89.49;99594.63;5088801;28;8860;-67
2021/12/30 07:54:40;;;;;;;;;1.00;1.00;;;;;13.78;89.57;99602.47;5087580;28;8841;-71
2021/12/30 07:57:08;;;;;;;;;0.25;0.00;;;;;13.80;89.29;99611.19;5088809;28;8862;-67
2021/12/30 07:59:35;;;;;;;;;1.00;1.00;;;;;13.81;89.72;99597.66;5087694;28;8838;-69
2021/12/30 08:02:03;;;;;;;;;0.00;0.00;;;;;13.83;89.95;99600.19;5089143;28;8855;-70
2021/12/30 08:04:31;;;;;;;;;0.50;0.50;;;;;13.83;90.03;99603.69;5088130;28;8872;-68
2021/12/30 08:06:59;;;;;;;;;0.00;0.00;;;;;13.84;90.34;99602.75;5086664;28;8850;-67
2021/12/30 08:09:27;;;;;;;;;0.00;0.00;;;;;13.84;89.76;99618.81;5085396;28;8972;-69
2021/12/30 08:11:54;;;;;;;;;0.00;0.00;;;;;13.85;90.07;99636.53;5088057;28;8976;-70
2021/12/30 08:14:23;;;;;;;;;0.80;0.40;;;;;13.85;89.47;99633.88;5086345;28;8841;-67
2021/12/30 08:16:50;;;;;;;;;0.00;0.00;;;;;13.85;89.87;99627.66;5086723;28;8980;-67
2021/12/30 08:19:18;;;;;;;;;0.00;0.00;;;;;13.87;89.65;99639.03;5085218;28;8866;-69
2021/12/30 08:21:46;;;;;;;;;0.00;0.00;;;;;13.87;89.94;99633.69;5084123;28;8873;-68
2021/12/30 08:24:14;;;;;;;;;0.00;0.00;;;;;13.87;90.08;99645.25;5084682;28;8973;-70
2021/12/30 08:27:02;;;;;;;;;0.60;0.00;;;;;13.87;90.29;99633.69;5087172;28;8862;-69
2021/12/30 08:29:31;;;;;;;;;0.60;0.60;;;;;13.88;89.71;99630.03;5084050;28;8854;-68
2021/12/30 08:31:59;;;;;;;;;0.00;0.00;;;;;13.87;90.42;99634.53;5083026;28;8834;-67
2021/12/30 08:34:27;;;;;;;;;0.00;0.00;;;;;13.87;90.28;99639.91;5081272;28;8846;-69
2021/12/30 08:36:54;;;;;;;;;0.00;0.00;;;;;13.87;89.83;99645.25;5084040;28;8864;-67
2021/12/30 08:39:22;;;;;;;;;0.00;0.00;;;;;13.87;90.05;99645.25;5081666;28;8834;-66
2021/12/30 08:41:51;;;;;;;;;0.00;0.00;;;;;13.88;90.15;99646.09;5085016;28;8878;-66
2021/12/30 08:44:18;;;;;;;;;0.00;0.00;;;;;13.88;90.44;99654.13;5082328;28;8858;-66
2021/12/30 08:46:46;;;;;;;;;0.80;0.00;;;;;13.88;90.28;99646.09;5084950;28;9821;-67
2021/12/30 08:49:14;;;;;;;;;0.00;0.00;;;;;13.89;90.19;99650.47;5084293;28;8846;-67
2021/12/30 08:51:42;;;;;;;;;0.00;0.00;;;;;13.89;90.05;99655.81;5083694;28;8830;-67
2021/12/30 08:54:10;;;;;;;;;0.50;0.00;;;;;13.90;90.53;99660.19;5084011;28;8852;-66
2021/12/30 08:56:37;;;;;;;;;1.00;0.25;;;;;13.90;90.51;99670.88;5083811;28;8951;-69
2021/12/30 08:59:05;;;;;;;;;0.00;0.00;;;;;13.90;90.36;99676.25;5079168;28;8848;-65
2021/12/30 09:01:33;;;;;;;;;0.80;0.80;;;;;13.90;90.37;99676.25;5084458;28;8992;-67
2021/12/30 09:04:01;;;;;;;;;1.00;1.00;;;;;13.91;90.01;99675.25;5086278;28;8858;-67
2021/12/30 09:06:29;;;;;;;;;2.40;0.00;;;;;13.90;90.37;99678.91;5084002;28;8895;-67
2021/12/30 09:08:57;;;;;;;;;1.00;1.00;;;;;13.90;90.26;99681.59;5083812;28;8947;-66
2021/12/30 09:11:26;;;;;;;;;1.00;0.75;;;;;13.91;90.34;99693.97;5085854;28;8845;-66
2021/12/30 09:13:54;;;;;;;;;0.40;0.40;;;;;13.89;90.63;99691.44;5084326;28;8842;-67
2021/12/30 09:16:21;;;;;;;;;1.00;1.00;;;;;13.90;90.03;99700.31;5083062;28;8862;-66
2021/12/30 09:18:49;;;;;;;;;0.20;0.20;;;;;13.89;90.38;99691.44;5083074;28;8857;-68
2021/12/30 09:21:17;;;;;;;;;0.00;0.00;;;;;13.90;90.30;99687.78;5082847;28;8884;-66
2021/12/30 09:23:45;;;;;;;;;0.00;0.00;;;;;13.90;90.65;99693.13;5086185;28;8848;-67
2021/12/30 09:26:12;;;;;;;;;1.00;1.00;;;;;13.91;90.46;99693.97;5080450;28;8862;-67
2021/12/30 09:28:40;;;;;;;;;0.60;0.00;;;;;13.91;90.43;99694.84;5083269;28;8842;-66
2021/12/30 09:31:08;;;;;;;;;0.00;0.00;;;;;13.92;90.49;99703.69;5083429;28;8842;-67
2021/12/30 09:33:36;;;;;;;;;0.00;0.00;;;;;13.91;90.61;99705.53;5084333;28;8976;-69
2021/12/30 09:36:04;;;;;;;;;0.60;0.60;;;;;13.91;90.52;99707.38;5083166;28;8845;-65
2021/12/30 09:38:32;;;;;;;;;1.00;1.00;;;;;13.91;90.01;99712.72;5082688;28;8854;-66
2021/12/30 09:41:00;;;;;;;;;0.20;0.00;;;;;13.91;90.98;99710.91;5081350;28;8887;-66
2021/12/30 09:43:34;;;;;;;;;0.00;0.00;;;;;13.92;90.84;99717.94;5082215;28;9318;-67
2021/12/30 09:46:02;;;;;;;;;0.60;0.60;;;;;13.93;90.83;99721.44;5084164;28;8973;-66
2021/12/30 09:48:30;;;;;;;;;0.40;0.00;;;;;13.92;90.86;99723.28;5083077;28;8880;-67
2021/12/30 09:50:58;;;;;;;;;0.00;0.00;;;;;13.93;90.97;99724.13;5084169;28;8854;-69
2021/12/30 09:53:26;;;;;;;;;0.00;0.00;;;;;13.93;90.83;99706.22;5083541;28;8846;-70
2021/12/30 09:55:55;;;;;;;;;0.00;0.00;;;;;13.94;90.21;99701.69;5082506;28;8837;-68
2021/12/30 09:58:22;;;;;;;;;0.20;0.20;;;;;13.96;91.06;99697.06;5085122;28;9020;-67
2021/12/30 10:00:51;;;;;;;;;0.40;0.00;;;;;13.99;91.10;99691.41;5082385;28;8858;-66
2021/12/30 10:03:24;;;;;;;;;1.00;1.00;;;;;14.01;90.51;99695.63;5083396;28;8850;-66
2021/12/30 10:05:53;;;;;;;;;0.00;0.00;;;;;14.07;90.76;99699.53;5080964;28;8854;-67
2021/12/30 10:08:21;;;;;;;;;1.00;1.00;;;;;14.09;90.45;99690.34;5082117;28;8948;-67
2021/12/30 10:10:49;;;;;;;;;0.00;0.00;;;;;14.12;90.47;99703.44;5084037;28;9091;-68
2021/12/30 10:13:16;;;;;;;;;0.00;0.00;;;;;14.13;90.65;99697.06;5088244;28;8891;-68
2021/12/30 10:15:44;;;;;;;;;0.00;0.00;;;;;14.13;90.68;99717.66;5084560;28;8866;-66
2021/12/30 10:18:12;;;;;;;;;0.00;0.00;;;;;14.15;90.73;99689.75;5084570;28;8996;-65
2021/12/30 10:20:42;;;;;;;;;0.00;0.00;;;;;14.20;90.99;99683.97;5085011;28;9088;-65
2021/12/30 10:23:09;;;;;;;;;0.00;0.00;;;;;14.28;90.51;99678.69;5083008;28;9546;-67
2021/12/30 10:25:37;;;;;;;;;0.00;0.00;;;;;14.40;90.31;99680.16;5085026;28;8842;-65
2021/12/30 10:28:05;;;;;;;;;0.00;0.00;;;;;14.52;90.26;99684.28;5085927;28;8849;-65
2021/12/30 10:30:33;;;;;;;;;0.00;0.00;;;;;14.67;90.16;99672.03;5083715;28;8853;-65
2021/12/30 10:33:00;;;;;;;;;1.00;0.80;;;;;14.87;89.55;99676.25;5084984;28;8862;-64
2021/12/30 10:35:28;;;;;;;;;1.00;1.00;;;;;15.13;88.83;99691.38;5083421;28;9068;-65
2021/12/30 10:37:56;;;;;;;;;1.00;1.00;;;;;15.32;87.79;99698.41;5081399;28;8878;-68
2021/12/30 10:40:24;;;;;;;;;1.00;1.00;;;;;15.38;88.03;99706.66;5081337;28;8858;-67
2021/12/30 10:42:52;;;;;;;;;3.00;1.00;;;;;15.38;87.58;99703.09;5082080;28;8842;-64
2021/12/30 10:45:19;;;;;;;;;3.00;3.00;;;;;15.35;87.52;99698.06;5080623;28;8850;-64
2021/12/30 10:47:47;;;;;;;;;6.00;4.40;;;;;15.33;87.56;99718.84;5083469;28;8853;-65
2021/12/30 10:50:15;;;;;;;;;3.00;3.00;;;;;15.26;88.00;99715.91;5085233;28;8850;-64
2021/12/30 10:52:43;;;;;;;;;1.00;1.00;;;;;15.21;88.07;99712.03;5084607;28;9000;-65
2021/12/30 10:55:10;;;;;;;;;3.00;3.00;;;;;15.16;87.57;99717.84;5083476;28;9557;-65
2021/12/30 10:57:39;;;;;;;;;1.00;1.00;;;;;15.12;87.87;99732.59;5083530;28;9678;-65
2021/12/30 11:00:07;;;;;;;;;3.40;3.20;;;;;15.10;87.80;99728.38;5085126;28;8857;-65
2021/12/30 11:02:35;;;;;;;;;1.40;1.00;;;;;15.10;87.64;99739.13;5084690;28;8854;-66
2021/12/30 11:05:05;;;;;;;;;3.40;1.80;;;;;15.11;87.93;99735.44;5085528;28;8830;-65
2021/12/30 11:07:32;;;;;;;;;3.00;3.00;;;;;15.13;87.81;99728.06;5085750;28;8860;-66
2021/12/30 11:10:00;;;;;;;;;3.00;3.00;;;;;15.14;88.13;99732.41;5083632;28;8854;-64
2021/12/30 11:12:28;;;;;;;;;3.00;3.00;;;;;15.14;87.52;99725.22;5084476;28;8872;-66
2021/12/30 11:14:56;;;;;;;;;3.40;3.00;;;;;15.15;87.68;99720.69;5086753;28;9982;-65
2021/12/30 11:17:29;;;;;;;;;3.80;3.40;;;;;15.16;87.55;99717.84;5085438;28;9923;-65
2021/12/30 11:19:58;;;;;;;;;1.00;1.00;;;;;15.19;87.73;99727.44;5084903;28;8845;-64
2021/12/30 11:22:26;;;;;;;;;3.00;2.60;;;;;15.23;87.55;99723.44;5084190;28;8856;-64
2021/12/30 11:24:54;;;;;;;;;1.00;1.00;;;;;15.26;87.55;99737.38;5083147;28;8956;-64
2021/12/30 11:27:21;;;;;;;;;3.40;2.60;;;;;15.28;87.19;99737.22;5085594;28;9511;-65
2021/12/30 11:29:49;;;;;;;;;2.20;1.40;;;;;15.28;87.34;99730.03;5085884;28;8850;-64
2021/12/30 11:32:18;;;;;;;;;3.00;3.00;;;;;15.29;87.32;99731.72;5084755;28;8849;-65
2021/12/30 11:34:46;;;;;;;;;3.80;3.80;;;;;15.33;87.15;99743.00;5084863;28;8846;-65
2021/12/30 11:37:14;;;;;;;;;3.00;1.00;;;;;15.34;87.08;99742.00;5083252;28;8864;-65
2021/12/30 11:39:42;;;;;;;;;3.00;1.00;;;;;15.30;87.10;99735.22;5085719;28;8859;-65
2021/12/30 11:42:09;;;;;;;;;3.80;2.60;;;;;15.24;86.69;99731.34;5085637;28;8999;-65
2021/12/30 11:44:37;;;;;;;;;0.00;0.00;;;;;15.20;87.08;99721.06;5084064;28;8842;-65